RKPC/CJU METAR and TAF weather

Enter ICAO airport designator
Station Type Date Time Source
RKPC METAR 2020/07/14 07:00 UTC NOAA

RKPC 140700Z 29007KT 9999 FEW015 BKN025 BKN150 22/19 Q1004 NOSIG


Station Type Date Time Source
RKPC Decoded METAR 2020/07/14 07:00 UTC NOAA

Cheju International Airport, Korea, South (RKPC) 33-30N 126-30E 28M
Jul 14, 2020 - 03:00 AM EDT / 2020.07.14 0700 UTC
Wind: from the WNW (290 degrees) at 8 MPH (7 KT):0
Visibility: greater than 7 mile(s):0
Sky conditions: mostly cloudy
Temperature: 71 F (22 C)
Dew Point: 66 F (19 C)
Relative Humidity: 83%
Pressure (altimeter): 29.65 in. Hg (1004 hPa)
ob: RKPC 140700Z 29007KT 9999 FEW015 BKN025 BKN150 22/19 Q1004 NOSIG
cycle: 7

Station Type Date Time Source
RKPC TAF 2020/07/14 06:39 UTC NOAA

TAF TAF RKPC 140500Z 1406/1512 28010KT 9999 FEW010 BKN025 OVC100 TN20/1420Z TX23/1506Z
BECMG 1413/1414 32010KT 4000 -RA BKN010 OVC080
BECMG 1423/1424 35008KT 6000 NSW FEW010 BKN025 OVC100
BECMG 1505/1506 SCT030
BECMG 1509/1510 05007KT

Example: see airport list